Time;durP1;ratioP1;P1;durP2;ratioP2;P2;SDS_P1;SDS_P2;PMS_P1;PMS_P2;Temp;Humidity;BMP_temperature;BMP_pressure;BME280_temperature;BME280_humidity;BME280_pressure;Samples;Min_cycle;Max_cycle;Signal;HPM_P1;HPM_P2
2024/04/06 00:00:51;;;;;;;2.70;1.30;;;18.40;45.30;;;;;;5011811;28;20447;-73
2024/04/06 00:03:17;;;;;;;4.63;1.63;;;18.40;45.20;;;;;;4994637;28;20570;-72
2024/04/06 00:05:44;;;;;;;2.90;1.47;;;18.30;45.80;;;;;;4995930;28;20454;-72
2024/04/06 00:08:10;;;;;;;3.07;1.60;;;18.30;46.30;;;;;;4994712;28;20524;-72
2024/04/06 00:10:38;;;;;;;3.47;1.50;;;18.20;46.40;;;;;;4994852;28;20574;-73
2024/04/06 00:13:04;;;;;;;2.93;1.57;;;18.20;46.50;;;;;;4994665;28;20485;-73
2024/04/06 00:15:31;;;;;;;5.83;1.50;;;18.20;46.60;;;;;;4995437;28;20537;-72
2024/04/06 00:17:57;;;;;;;2.60;1.07;;;18.10;46.70;;;;;;4997004;28;20445;-72
2024/04/06 00:20:23;;;;;;;4.20;1.30;;;18.10;46.50;;;;;;4994595;28;20446;-73
2024/04/06 00:22:49;;;;;;;2.93;1.43;;;18.00;46.30;;;;;;4994423;28;21037;-72
2024/04/06 00:25:17;;;;;;;4.67;1.70;;;18.00;45.50;;;;;;4994486;28;20529;-72
2024/04/06 00:27:44;;;;;;;5.00;1.60;;;17.90;45.10;;;;;;4994869;28;20507;-72
2024/04/06 00:30:11;;;;;;;3.67;1.77;;;17.90;45.40;;;;;;4994535;28;20793;-72
2024/04/06 00:32:37;;;;;;;2.83;1.33;;;17.90;45.60;;;;;;4994260;28;20430;-72
2024/04/06 00:35:04;;;;;;;6.83;1.13;;;18.00;46.50;;;;;;4994471;28;20450;-72
2024/04/06 00:37:30;;;;;;;3.80;1.43;;;18.00;47.20;;;;;;5011374;28;20466;-72
2024/04/06 00:39:57;;;;;;;3.43;1.37;;;18.00;47.50;;;;;;5014000;28;20469;-72
2024/04/06 00:42:23;;;;;;;2.83;1.33;;;18.00;48.00;;;;;;5006205;28;20520;-72
2024/04/06 00:44:51;;;;;;;5.20;1.60;;;18.00;48.30;;;;;;4999805;28;20473;-72
2024/04/06 00:47:17;;;;;;;5.40;1.67;;;18.00;48.30;;;;;;4999838;28;20432;-72
2024/04/06 00:49:44;;;;;;;3.23;1.60;;;17.90;48.40;;;;;;4994342;28;20474;-72
2024/04/06 00:52:10;;;;;;;3.23;1.20;;;17.90;48.50;;;;;;5010024;28;20461;-73
2024/04/06 00:54:37;;;;;;;5.93;2.20;;;17.90;48.10;;;;;;5013410;28;20477;-72
2024/04/06 00:57:06;;;;;;;3.00;1.60;;;17.80;48.10;;;;;;5000419;28;20467;-72
2024/04/06 00:59:34;;;;;;;4.50;1.80;;;17.80;48.80;;;;;;4994635;28;20450;-72
2024/04/06 01:02:02;;;;;;;3.90;1.10;;;17.80;49.20;;;;;;4993933;28;20482;-72
2024/04/06 01:04:29;;;;;;;3.80;1.20;;;17.80;49.40;;;;;;4999046;28;20438;-72
2024/04/06 01:06:56;;;;;;;2.80;1.00;;;17.80;49.20;;;;;;5002074;28;20475;-72
2024/04/06 01:09:23;;;;;;;2.80;1.30;;;17.70;49.20;;;;;;4994432;28;20959;-72
2024/04/06 01:11:49;;;;;;;3.10;1.90;;;17.70;49.00;;;;;;4993870;28;20508;-72
2024/04/06 01:14:16;;;;;;;2.43;1.10;;;17.70;49.00;;;;;;5013520;28;20442;-72
2024/04/06 01:16:43;;;;;;;2.60;1.17;;;17.60;47.00;;;;;;5012295;28;20476;-72
2024/04/06 01:19:11;;;;;;;2.60;1.30;;;17.60;47.00;;;;;;5013889;28;20450;-72
2024/04/06 01:21:37;;;;;;;2.70;1.40;;;17.60;47.00;;;;;;5008643;28;20490;-72
2024/04/06 01:24:22;;;;;;;4.60;1.70;;;17.60;46.80;;;;;;4996097;28;20504;-72
2024/04/06 01:26:48;;;;;;;2.87;1.40;;;17.60;47.20;;;;;;5002173;28;21053;-72
2024/04/06 01:29:15;;;;;;;3.63;1.47;;;17.50;47.70;;;;;;5013891;28;20535;-72
2024/04/06 01:31:41;;;;;;;4.67;1.80;;;17.40;47.80;;;;;;5013930;28;20539;-72
2024/04/06 01:34:09;;;;;;;4.63;2.07;;;17.40;48.30;;;;;;5013731;28;20464;-72
2024/04/06 01:36:36;;;;;;;6.33;2.13;;;17.40;48.30;;;;;;5006406;28;20426;-72
2024/04/06 01:39:05;;;;;;;3.60;1.60;;;17.30;48.30;;;;;;4994417;28;20485;-72
2024/04/06 01:41:51;;;;;;;6.73;1.63;;;17.20;48.50;;;;;;4994090;28;20446;-72
2024/04/06 01:44:18;;;;;;;2.63;1.37;;;17.10;48.60;;;;;;4993943;28;20460;-72
2024/04/06 01:46:44;;;;;;;2.60;1.10;;;17.10;48.70;;;;;;5001336;28;20490;-73
2024/04/06 01:49:42;;;;;;;2.67;1.40;;;17.10;49.00;;;;;;5013801;28;20467;-72
2024/04/06 01:52:08;;;;;;;2.90;1.77;;;17.10;49.20;;;;;;5011657;28;20826;-72
2024/04/06 01:54:36;;;;;;;3.27;1.90;;;17.10;50.70;;;;;;5013328;28;20538;-72
2024/04/06 01:57:02;;;;;;;2.63;1.53;;;17.10;50.70;;;;;;5003321;28;20465;-72
2024/04/06 01:59:33;;;;;;;6.17;1.53;;;17.20;50.70;;;;;;4993630;28;20444;-72
2024/04/06 02:01:59;;;;;;;2.83;1.13;;;17.20;51.00;;;;;;4993950;28;20459;-72
2024/04/06 02:04:26;;;;;;;3.30;1.20;;;17.10;51.20;;;;;;4995566;28;20834;-72
2024/04/06 02:06:52;;;;;;;6.53;1.60;;;17.10;51.20;;;;;;5009106;28;20459;-72
2024/04/06 02:09:19;;;;;;;2.43;1.10;;;17.00;51.40;;;;;;5013437;28;20515;-72
2024/04/06 02:11:46;;;;;;;4.23;1.57;;;17.10;51.60;;;;;;5013410;28;20852;-72
2024/04/06 02:14:13;;;;;;;3.47;2.60;;;17.00;51.90;;;;;;5013445;28;20470;-72
2024/04/06 02:16:39;;;;;;;2.40;1.43;;;17.10;52.10;;;;;;5006473;28;20462;-72
2024/04/06 02:19:06;;;;;;;3.03;1.90;;;17.00;52.10;;;;;;4993788;28;20524;-72
2024/04/06 02:21:32;;;;;;;3.27;1.50;;;17.00;52.10;;;;;;4993829;28;20429;-72
2024/04/06 02:23:59;;;;;;;3.00;2.00;;;16.90;52.00;;;;;;4993800;28;21039;-72
2024/04/06 02:26:25;;;;;;;3.10;1.50;;;16.90;52.40;;;;;;4997861;28;20455;-72
2024/04/06 02:28:53;;;;;;;5.00;1.23;;;16.90;53.30;;;;;;5012785;28;20566;-72
2024/04/06 02:31:19;;;;;;;4.00;1.50;;;16.90;52.90;;;;;;5011144;28;20469;-72
2024/04/06 02:33:46;;;;;;;4.50;1.27;;;16.90;52.90;;;;;;5013185;28;20483;-72
2024/04/06 02:36:12;;;;;;;3.53;2.00;;;16.90;53.00;;;;;;5012958;28;20440;-72
2024/04/06 02:38:39;;;;;;;2.90;1.50;;;16.80;52.60;;;;;;5016187;28;20444;-72
2024/04/06 02:41:06;;;;;;;5.20;1.80;;;16.80;52.70;;;;;;5014606;28;20916;-72
2024/04/06 02:43:32;;;;;;;4.87;2.10;;;16.80;52.80;;;;;;5007722;28;20461;-72
2024/04/06 02:46:00;;;;;;;3.13;1.53;;;16.80;53.00;;;;;;4996718;28;20857;-72
2024/04/06 02:48:26;;;;;;;3.80;1.90;;;16.70;52.90;;;;;;4996704;28;20507;-72
2024/04/06 02:50:53;;;;;;;2.60;1.40;;;16.70;52.90;;;;;;5007333;28;20439;-72
2024/04/06 02:53:19;;;;;;;2.70;1.33;;;16.70;52.80;;;;;;4996999;28;20471;-72
2024/04/06 02:55:46;;;;;;;3.90;2.23;;;16.70;53.30;;;;;;4996949;28;20904;-72
2024/04/06 02:58:12;;;;;;;3.27;1.40;;;16.70;53.00;;;;;;4996889;28;20447;-72
2024/04/06 03:00:39;;;;;;;5.07;2.40;;;16.60;52.80;;;;;;4997013;28;20449;-72
2024/04/06 03:03:06;;;;;;;2.90;1.80;;;16.60;52.90;;;;;;5016401;28;20472;-72
2024/04/06 03:05:33;;;;;;;3.37;2.10;;;16.60;52.80;;;;;;5016326;28;20465;-71
2024/04/06 03:07:59;;;;;;;4.47;1.77;;;16.50;53.20;;;;;;5016194;28;20470;-72
2024/04/06 03:10:26;;;;;;;2.50;1.23;;;16.50;53.20;;;;;;5006099;28;20847;-72
2024/04/06 03:12:52;;;;;;;6.83;1.67;;;16.40;52.90;;;;;;5014990;28;20442;-72
2024/04/06 03:15:19;;;;;;;2.80;1.50;;;16.40;52.60;;;;;;5015867;28;20509;-72
2024/04/06 03:17:45;;;;;;;2.77;1.37;;;16.30;52.60;;;;;;5016111;28;20513;-72
2024/04/06 03:20:13;;;;;;;4.43;1.77;;;16.30;52.60;;;;;;5016028;28;20857;-72
2024/04/06 03:22:39;;;;;;;5.37;1.63;;;16.30;53.40;;;;;;4999002;28;20591;-71
2024/04/06 03:25:06;;;;;;;5.70;2.10;;;16.20;53.30;;;;;;4996322;28;20505;-72
2024/04/06 03:27:32;;;;;;;2.97;1.60;;;16.10;53.80;;;;;;4996310;28;20769;-72
2024/04/06 03:29:59;;;;;;;4.17;2.20;;;16.10;54.00;;;;;;4995875;28;20571;-72
2024/04/06 03:32:25;;;;;;;2.80;1.53;;;16.00;54.10;;;;;;5010083;28;20463;-72
2024/04/06 03:34:52;;;;;;;5.43;2.10;;;15.90;54.20;;;;;;5015842;28;20471;-72
2024/04/06 03:37:20;;;;;;;3.30;2.00;;;15.80;54.40;;;;;;5015523;28;20950;-71
2024/04/06 03:39:49;;;;;;;9.70;2.03;;;15.80;54.50;;;;;;5015653;28;20435;-72
2024/04/06 03:42:17;;;;;;;3.67;1.90;;;15.70;54.50;;;;;;5002157;28;20523;-72
2024/04/06 03:44:43;;;;;;;3.70;2.00;;;15.70;54.50;;;;;;5006195;28;20435;-72
2024/04/06 03:47:09;;;;;;;5.93;2.20;;;15.60;54.60;;;;;;5015571;28;20848;-72
2024/04/06 03:49:36;;;;;;;2.80;1.63;;;15.50;54.50;;;;;;5014069;28;20506;-72
2024/04/06 03:52:02;;;;;;;2.77;1.50;;;15.50;54.80;;;;;;5001844;28;20487;-71
2024/04/06 03:54:31;;;;;;;2.97;2.00;;;15.40;54.60;;;;;;4996009;28;20444;-72
2024/04/06 03:56:57;;;;;;;2.90;1.60;;;15.40;55.10;;;;;;4995831;28;20522;-71
2024/04/06 03:59:25;;;;;;;3.37;1.43;;;15.30;55.20;;;;;;4995370;28;20531;-72
2024/04/06 04:01:51;;;;;;;3.47;1.70;;;15.20;55.10;;;;;;5007056;28;20442;-72
2024/04/06 04:04:18;;;;;;;3.10;1.77;;;15.10;55.40;;;;;;5014982;28;20470;-72
2024/04/06 04:06:44;;;;;;;3.07;1.80;;;15.10;55.50;;;;;;5015408;28;20488;-71
2024/04/06 04:09:15;;;;;;;7.53;1.70;;;15.00;55.70;;;;;;5012548;28;21038;-73
2024/04/06 04:11:42;;;;;;;4.30;1.60;;;15.00;55.60;;;;;;4995752;28;20432;-72
2024/04/06 04:14:09;;;;;;;4.00;1.90;;;14.90;55.60;;;;;;4995647;28;20439;-72
2024/04/06 04:16:35;;;;;;;2.80;1.60;;;14.90;55.70;;;;;;4995574;28;20789;-72
2024/04/06 04:19:02;;;;;;;4.80;1.50;;;14.80;55.50;;;;;;4995452;28;20475;-72
2024/04/06 04:21:28;;;;;;;4.93;2.07;;;14.70;55.30;;;;;;5002661;28;20845;-72
2024/04/06 04:23:56;;;;;;;6.50;1.63;;;14.70;55.50;;;;;;5015174;28;20509;-72
2024/04/06 04:26:22;;;;;;;4.60;1.73;;;14.70;55.50;;;;;;5014522;28;20470;-72
2024/04/06 04:28:50;;;;;;;3.20;1.67;;;14.70;55.40;;;;;;5014519;28;20462;-72
2024/04/06 04:31:17;;;;;;;3.13;1.73;;;14.70;55.60;;;;;;5008500;28;20463;-72
2024/04/06 04:33:45;;;;;;;5.80;1.70;;;14.70;56.00;;;;;;4995680;28;20438;-72
2024/04/06 04:36:12;;;;;;;3.43;1.90;;;14.70;55.80;;;;;;4995125;28;20435;-72
2024/04/06 04:38:39;;;;;;;3.20;1.97;;;14.70;55.60;;;;;;4996059;28;20449;-72
2024/04/06 04:41:06;;;;;;;2.83;1.30;;;14.60;55.50;;;;;;4998337;28;20463;-72
2024/04/06 04:43:33;;;;;;;3.57;2.10;;;14.60;55.70;;;;;;4994973;28;20446;-72
2024/04/06 04:46:01;;;;;;;4.03;1.80;;;14.60;55.40;;;;;;4994993;28;20440;-72
2024/04/06 04:48:34;;;;;;;3.30;1.97;;;14.50;55.40;;;;;;5003806;28;20467;-72
2024/04/06 04:51:00;;;;;;;3.73;2.10;;;14.50;55.20;;;;;;5014487;28;20433;-72
2024/04/06 04:53:27;;;;;;;4.23;2.00;;;14.50;55.20;;;;;;5014512;28;20560;-72
2024/04/06 04:55:53;;;;;;;3.53;1.60;;;14.40;54.40;;;;;;5012201;28;20514;-71
2024/04/06 04:58:20;;;;;;;3.73;1.30;;;14.30;54.50;;;;;;5008074;28;20519;-72
2024/04/06 05:00:46;;;;;;;3.13;1.40;;;14.20;54.80;;;;;;4994046;28;20966;-72
2024/04/06 05:03:15;;;;;;;3.40;1.53;;;14.10;55.20;;;;;;4994443;28;20475;-72
2024/04/06 05:05:41;;;;;;;3.20;1.73;;;14.10;55.40;;;;;;4994377;28;20479;-72
2024/04/06 05:08:08;;;;;;;6.30;2.47;;;14.20;55.00;;;;;;4999751;28;20432;-72
2024/04/06 05:10:34;;;;;;;2.77;1.53;;;14.20;55.20;;;;;;5013593;28;20933;-72
2024/04/06 05:13:00;;;;;;;3.33;1.50;;;14.20;54.80;;;;;;5013587;28;20477;-72
2024/04/06 05:15:26;;;;;;;2.80;1.70;;;14.20;54.80;;;;;;5013856;28;20489;-72
2024/04/06 05:17:53;;;;;;;4.43;1.73;;;14.20;54.90;;;;;;5007627;28;20938;-71
2024/04/06 05:20:21;;;;;;;4.07;2.20;;;14.30;55.10;;;;;;4993947;28;20478;-71
2024/04/06 05:22:48;;;;;;;4.30;1.80;;;14.30;55.10;;;;;;4993841;28;20894;-72
2024/04/06 05:25:14;;;;;;;3.43;2.07;;;14.30;55.10;;;;;;4994265;28;20471;-71
2024/04/06 05:27:41;;;;;;;3.07;1.90;;;14.40;55.30;;;;;;4995289;28;20439;-72
2024/04/06 05:30:08;;;;;;;3.40;1.80;;;14.50;55.50;;;;;;5013608;28;20510;-72
2024/04/06 05:32:35;;;;;;;6.00;2.20;;;14.50;55.50;;;;;;5005003;28;20998;-72
2024/04/06 05:35:01;;;;;;;3.50;1.87;;;14.50;55.90;;;;;;4993671;28;20501;-72
2024/04/06 05:37:29;;;;;;;2.50;1.40;;;14.50;55.90;;;;;;4993864;28;20443;-72
2024/04/06 05:39:55;;;;;;;2.90;1.73;;;14.50;56.30;;;;;;4993702;28;20952;-72
2024/04/06 05:42:22;;;;;;;4.50;1.60;;;14.50;56.20;;;;;;4994058;28;20439;-72
2024/04/06 05:44:48;;;;;;;2.97;1.70;;;14.50;56.20;;;;;;4993966;28;20463;-72
2024/04/06 05:47:15;;;;;;;5.57;2.60;;;14.50;55.70;;;;;;4997999;28;20906;-72
2024/04/06 05:49:41;;;;;;;3.83;2.57;;;14.60;55.50;;;;;;5013107;28;20563;-72
2024/04/06 05:52:08;;;;;;;8.03;3.50;;;14.60;55.00;;;;;;5009966;28;20532;-72
2024/04/06 05:54:35;;;;;;;5.23;3.60;;;14.60;54.70;;;;;;4993859;28;20478;-72
2024/04/06 05:57:03;;;;;;;6.17;3.30;;;14.60;54.70;;;;;;4996048;28;20523;-72
2024/04/06 05:59:30;;;;;;;9.03;3.27;;;14.60;55.00;;;;;;5013602;28;20454;-71
2024/04/06 06:01:57;;;;;;;4.87;3.03;;;14.60;55.30;;;;;;5013584;28;20793;-71
2024/04/06 06:04:23;;;;;;;4.80;2.40;;;14.70;55.30;;;;;;5013441;28;20466;-72
2024/04/06 06:06:50;;;;;;;8.93;3.37;;;14.80;54.30;;;;;;5012575;28;20466;-72
2024/04/06 06:09:16;;;;;;;4.70;2.60;;;14.80;55.30;;;;;;4994306;28;20975;-72
2024/04/06 06:11:46;;;;;;;4.17;2.90;;;14.80;55.80;;;;;;4993843;28;20482;-72
2024/04/06 06:14:12;;;;;;;7.87;2.90;;;14.90;55.40;;;;;;4997255;28;20471;-72
2024/04/06 06:16:39;;;;;;;4.50;2.10;;;15.00;55.60;;;;;;4997235;28;20475;-72
2024/04/06 06:19:05;;;;;;;4.00;2.27;;;15.00;55.30;;;;;;5001437;28;20463;-72
2024/04/06 06:21:32;;;;;;;6.00;2.60;;;15.10;54.70;;;;;;5017069;28;20475;-72
2024/04/06 06:23:58;;;;;;;5.10;2.87;;;15.20;52.90;;;;;;5016945;28;20505;-72
2024/04/06 06:26:25;;;;;;;5.60;2.90;;;15.30;51.60;;;;;;5016933;28;20443;-72
2024/04/06 06:28:52;;;;;;;7.03;3.83;;;15.40;51.20;;;;;;5016411;28;20517;-72
2024/04/06 06:31:19;;;;;;;4.47;2.80;;;15.50;52.20;;;;;;4998229;28;20518;-72
2024/04/06 06:33:45;;;;;;;9.00;2.73;;;15.60;55.00;;;;;;4997204;28;20515;-72
2024/04/06 06:36:14;;;;;;;4.40;3.40;;;15.70;56.10;;;;;;4997267;28;20982;-72
2024/04/06 06:38:40;;;;;;;5.17;2.20;;;15.90;56.40;;;;;;4996725;28;20444;-72
2024/04/06 06:41:06;;;;;;;4.93;1.97;;;16.10;56.20;;;;;;5012575;28;20434;-72
2024/04/06 06:43:32;;;;;;;3.80;2.17;;;16.30;56.00;;;;;;5016558;28;20443;-72
2024/04/06 06:46:01;;;;;;;5.63;2.20;;;16.40;55.30;;;;;;5016552;28;20443;-72
2024/04/06 06:48:26;;;;;;;4.67;1.80;;;16.60;55.60;;;;;;5016244;28;20467;-72
2024/04/06 06:50:53;;;;;;;4.80;2.53;;;16.80;56.70;;;;;;5002286;28;20515;-72
2024/04/06 06:53:19;;;;;;;4.40;1.63;;;16.90;55.60;;;;;;4996860;28;20833;-72
2024/04/06 06:55:46;;;;;;;3.30;2.07;;;17.10;55.00;;;;;;4996894;28;20450;-72
2024/04/06 06:58:12;;;;;;;4.97;1.90;;;17.30;55.20;;;;;;4999478;28;20820;-72
2024/04/06 07:00:40;;;;;;;3.70;1.60;;;17.40;53.20;;;;;;5003036;28;20492;-73
2024/04/06 07:03:08;;;;;;;3.40;1.40;;;17.60;52.40;;;;;;4996233;28;20444;-72
2024/04/06 07:05:36;;;;;;;6.87;1.27;;;17.80;51.60;;;;;;4996055;28;20452;-72
2024/04/06 07:08:02;;;;;;;2.90;1.23;;;18.00;52.20;;;;;;4995683;28;20446;-72
2024/04/06 07:10:29;;;;;;;2.60;1.23;;;18.20;50.90;;;;;;5005612;28;20774;-72
2024/04/06 07:12:56;;;;;;;3.40;1.63;;;18.40;50.70;;;;;;5015216;28;20496;-72
2024/04/06 07:15:23;;;;;;;3.57;1.70;;;18.70;49.90;;;;;;5015421;28;20452;-72
2024/04/06 07:17:49;;;;;;;3.50;1.43;;;18.90;49.60;;;;;;5014866;28;20526;-72
2024/04/06 07:20:17;;;;;;;3.27;1.77;;;19.30;48.20;;;;;;5003627;28;20438;-72
2024/04/06 07:22:43;;;;;;;3.10;1.40;;;19.60;43.40;;;;;;5015145;28;20494;-72
2024/04/06 07:25:10;;;;;;;3.20;1.30;;;19.90;42.90;;;;;;5012784;28;20474;-72
2024/04/06 07:27:36;;;;;;;3.50;1.13;;;20.20;44.60;;;;;;5015177;28;20491;-72
2024/04/06 07:30:05;;;;;;;3.37;1.00;;;20.70;45.10;;;;;;5007733;28;20554;-73
2024/04/06 07:32:31;;;;;;;3.03;1.17;;;21.10;41.00;;;;;;4995653;28;20452;-72
2024/04/06 07:34:57;;;;;;;5.30;0.97;;;21.60;41.80;;;;;;4997507;28;20517;-73
2024/04/06 07:37:25;;;;;;;3.20;1.30;;;22.10;40.70;;;;;;5014558;28;20470;-72
2024/04/06 07:39:52;;;;;;;2.73;1.00;;;22.60;38.20;;;;;;5003326;28;20452;-72
2024/04/06 07:42:19;;;;;;;3.33;1.20;;;23.00;38.30;;;;;;5013552;28;20467;-73
2024/04/06 07:44:49;;;;;;;4.13;1.07;;;23.50;36.40;;;;;;5011205;28;20458;-73
2024/04/06 07:47:16;;;;;;;5.23;1.07;;;24.00;37.60;;;;;;4999551;28;20485;-72
2024/04/06 07:49:42;;;;;;;2.43;1.03;;;24.60;34.90;;;;;;5014388;28;20561;-73
2024/04/06 07:52:09;;;;;;;2.20;0.90;;;25.20;32.30;;;;;;5014079;28;20550;-72
2024/04/06 07:54:36;;;;;;;2.70;0.87;;;25.70;30.20;;;;;;5010065;28;20918;-73
2024/04/06 07:57:05;;;;;;;3.00;1.07;;;26.30;29.70;;;;;;5013812;28;20485;-73
2024/04/06 07:59:32;;;;;;;3.27;1.00;;;26.90;29.70;;;;;;5014013;28;20525;-73
2024/04/06 08:01:59;;;;;;;2.10;0.80;;;27.60;28.70;;;;;;5014553;28;20452;-72
2024/04/06 08:04:27;;;;;;;2.70;1.00;;;28.00;27.60;;;;;;5013047;28;20434;-73
2024/04/06 08:06:54;;;;;;;2.67;1.20;;;28.60;26.80;;;;;;5013701;28;20435;-73
2024/04/06 08:09:20;;;;;;;3.50;0.90;;;29.00;26.10;;;;;;5013108;28;20548;-74
2024/04/06 08:11:48;;;;;;;2.70;1.00;;;29.30;25.30;;;;;;5007262;28;20439;-73
2024/04/06 08:14:14;;;;;;;3.13;1.10;;;29.70;25.40;;;;;;5004046;28;20427;-72
2024/04/06 08:16:41;;;;;;;2.70;1.20;;;30.00;24.60;;;;;;5014138;28;20848;-74
2024/04/06 08:19:07;;;;;;;3.53;1.17;;;30.30;23.10;;;;;;5014555;28;20458;-73
2024/04/06 08:21:34;;;;;;;3.30;1.23;;;30.60;24.00;;;;;;5013312;28;20960;-73
2024/04/06 08:24:00;;;;;;;2.77;1.10;;;31.00;24.40;;;;;;5012468;28;20992;-73
2024/04/06 08:26:27;;;;;;;2.60;1.17;;;31.50;23.70;;;;;;4994657;28;20487;-73
2024/04/06 08:28:54;;;;;;;2.90;0.97;;;31.90;22.40;;;;;;5009741;28;20215;-73
2024/04/06 08:31:21;;;;;;;3.80;1.07;;;32.10;22.10;;;;;;5010934;28;20438;-73
2024/04/06 08:33:52;;;;;;;2.90;1.20;;;32.40;22.60;;;;;;5006136;28;20432;-73
2024/04/06 08:36:19;;;;;;;3.60;1.20;;;32.80;21.90;;;;;;4993275;28;20432;-73
2024/04/06 08:38:45;;;;;;;2.37;1.10;;;33.00;21.80;;;;;;4998903;28;20459;-73
2024/04/06 08:41:13;;;;;;;2.60;1.20;;;33.30;21.60;;;;;;5013142;28;20550;-73
2024/04/06 08:43:43;;;;;;;2.73;0.93;;;33.70;21.90;;;;;;4994182;28;20464;-73
2024/04/06 08:46:11;;;;;;;2.10;0.87;;;33.90;21.00;;;;;;4994421;28;20454;-73
2024/04/06 08:48:40;;;;;;;2.23;0.90;;;34.10;20.80;;;;;;4994096;28;20443;-73
2024/04/06 08:51:11;;;;;;;3.07;1.00;;;34.30;20.50;;;;;;4993857;28;20525;-73
2024/04/06 08:53:37;;;;;;;2.90;1.07;;;34.60;20.20;;;;;;4993587;28;20431;-74
2024/04/06 08:56:08;;;;;;;2.70;1.10;;;34.80;19.60;;;;;;4994588;28;20547;-73
2024/04/06 08:58:34;;;;;;;3.33;1.00;;;34.80;19.70;;;;;;5013344;28;20508;-73
2024/04/06 09:01:03;;;;;;;3.00;1.13;;;35.00;20.00;;;;;;5012663;28;20525;-73
2024/04/06 09:03:31;;;;;;;2.50;1.10;;;35.20;19.60;;;;;;5012025;28;20435;-73
2024/04/06 09:05:58;;;;;;;2.70;1.10;;;35.30;19.90;;;;;;5012955;28;20799;-73
2024/04/06 09:08:24;;;;;;;2.33;0.90;;;35.50;20.80;;;;;;4998618;28;20479;-74
2024/04/06 09:10:56;;;;;;;2.60;1.03;;;35.70;20.00;;;;;;4993563;28;20562;-73
2024/04/06 09:13:22;;;;;;;4.90;1.40;;;35.80;20.10;;;;;;4994194;28;20519;-73
2024/04/06 09:15:49;;;;;;;2.67;1.13;;;36.00;19.60;;;;;;4993871;28;20510;-73
2024/04/06 09:18:16;;;;;;;3.70;1.27;;;36.00;19.80;;;;;;5005471;28;20486;-73
2024/04/06 09:20:51;;;;;;;4.40;1.00;;;36.10;20.10;;;;;;5006586;28;20452;-73
2024/04/06 09:23:17;;;;;;;3.40;0.87;;;36.30;19.90;;;;;;5003868;28;20470;-73
2024/04/06 09:25:44;;;;;;;3.40;0.80;;;36.60;19.50;;;;;;5011595;28;20435;-73
2024/04/06 09:28:10;;;;;;;3.30;1.20;;;36.70;18.30;;;;;;4997275;28;20435;-74
2024/04/06 09:30:42;;;;;;;2.57;1.03;;;37.00;17.90;;;;;;4997516;28;21019;-73
2024/04/06 09:33:10;;;;;;;3.10;1.00;;;37.10;17.80;;;;;;5008446;28;20423;-73
2024/04/06 09:35:40;;;;;;;4.63;1.10;;;37.30;17.20;;;;;;5005421;28;20435;-73
2024/04/06 09:38:11;;;;;;;3.93;1.07;;;37.60;17.70;;;;;;4998474;28;20435;-73
2024/04/06 09:40:40;;;;;;;3.80;1.00;;;37.80;17.40;;;;;;5000201;28;20459;-73
2024/04/06 09:43:05;;;;;;;3.70;0.97;;;37.80;17.90;;;;;;5001983;28;20941;-73
2024/04/06 09:45:33;;;;;;;3.17;1.20;;;38.00;17.80;;;;;;5008318;28;20463;-73
2024/04/06 09:48:01;;;;;;;2.10;0.77;;;38.40;17.60;;;;;;5007697;28;20463;-74
2024/04/06 09:50:30;;;;;;;2.93;1.20;;;38.70;18.00;;;;;;5000570;28;20470;-73
2024/04/06 09:52:56;;;;;;;2.43;1.00;;;39.00;17.50;;;;;;4994269;28;20779;-73
2024/04/06 09:55:27;;;;;;;2.90;1.20;;;39.20;16.10;;;;;;4996112;28;21010;-73
2024/04/06 09:57:54;;;;;;;2.27;0.93;;;39.30;16.00;;;;;;4997655;28;20423;-73
2024/04/06 10:00:22;;;;;;;2.47;1.00;;;39.30;15.60;;;;;;4996976;28;20454;-74
2024/04/06 10:02:50;;;;;;;3.10;1.00;;;39.20;14.80;;;;;;5015234;28;20462;-73
2024/04/06 10:05:17;;;;;;;4.50;1.20;;;38.90;15.20;;;;;;5014878;28;20542;-79
2024/04/06 10:07:49;;;;;;;2.73;1.13;;;38.70;14.50;;;;;;5015114;28;20439;-73
2024/04/06 10:10:16;;;;;;;2.77;0.90;;;38.60;15.80;;;;;;5014647;28;20490;-74
2024/04/06 10:12:45;;;;;;;2.50;1.00;;;38.60;15.20;;;;;;5016499;28;20438;-74
2024/04/06 10:15:13;;;;;;;3.33;0.90;;;38.50;15.90;;;;;;5002973;28;20447;-73
2024/04/06 10:17:45;;;;;;;2.60;1.20;;;38.40;15.70;;;;;;5015932;28;20837;-76
2024/04/06 10:20:13;;;;;;;4.43;1.33;;;38.40;16.70;;;;;;4998905;28;20522;-73
2024/04/06 10:22:50;;;;;;;2.90;1.30;;;38.30;16.20;;;;;;4996764;28;20471;-73
2024/04/06 10:25:18;;;;;;;2.40;1.10;;;38.00;16.00;;;;;;5015693;28;20853;-74
2024/04/06 10:27:46;;;;;;;2.87;1.20;;;37.90;16.40;;;;;;5013431;28;20514;-74
2024/04/06 10:30:14;;;;;;;7.37;1.30;;;37.90;16.40;;;;;;5014621;28;20549;-74
2024/04/06 10:32:40;;;;;;;3.27;1.27;;;37.80;16.30;;;;;;5014326;28;20469;-74
2024/04/06 10:35:07;;;;;;;3.43;1.20;;;37.60;16.50;;;;;;5016226;28;20504;-74
2024/04/06 10:37:36;;;;;;;2.80;1.10;;;37.50;16.40;;;;;;5014574;28;20910;-74
2024/04/06 10:40:04;;;;;;;3.20;0.90;;;37.40;16.80;;;;;;4996522;28;20938;-74
2024/04/06 10:42:30;;;;;;;2.70;0.90;;;37.40;16.60;;;;;;4996291;28;20438;-74
2024/04/06 10:44:58;;;;;;;3.07;0.70;;;37.30;15.90;;;;;;4997609;28;20440;-74
2024/04/06 10:47:25;;;;;;;3.80;1.07;;;37.40;16.10;;;;;;5015181;28;20227;-74
2024/04/06 10:49:54;;;;;;;2.57;1.00;;;37.40;15.20;;;;;;5015650;28;20474;-74
2024/04/06 10:52:20;;;;;;;2.60;1.13;;;37.40;15.90;;;;;;5015880;28;20474;-76
2024/04/06 10:54:47;;;;;;;5.20;1.07;;;37.40;15.80;;;;;;5015605;28;20439;-75
2024/04/06 10:57:13;;;;;;;3.57;1.10;;;37.40;16.00;;;;;;5015426;28;20470;-75
2024/04/06 10:59:40;;;;;;;2.67;0.80;;;37.40;16.50;;;;;;4995897;28;20443;-75
2024/04/06 11:02:08;;;;;;;2.33;0.90;;;37.40;15.50;;;;;;4995801;28;20471;-75
2024/04/06 11:04:40;;;;;;;2.83;0.90;;;37.30;14.50;;;;;;4996174;28;20510;-75
2024/04/06 11:07:06;;;;;;;2.70;1.07;;;37.30;13.80;;;;;;4997178;28;20440;-75
2024/04/06 11:09:33;;;;;;;3.30;1.33;;;37.30;13.70;;;;;;4995949;28;20451;-75
2024/04/06 11:12:01;;;;;;;3.47;1.57;;;37.40;14.90;;;;;;4995876;28;20511;-75
2024/04/06 11:14:29;;;;;;;2.67;0.97;;;37.40;14.80;;;;;;4997152;28;20459;-75
2024/04/06 11:16:55;;;;;;;4.53;1.20;;;37.50;15.60;;;;;;5015557;28;20438;-75
2024/04/06 11:19:24;;;;;;;2.40;1.00;;;37.60;14.70;;;;;;5015439;28;20844;-75
2024/04/06 11:21:50;;;;;;;2.40;0.90;;;37.50;15.30;;;;;;5015040;28;20976;-75
2024/04/06 11:24:18;;;;;;;3.47;1.23;;;37.70;16.40;;;;;;4998318;28;20459;-76
2024/04/06 11:26:43;;;;;;;2.50;1.10;;;37.80;16.40;;;;;;5007663;28;20470;-76
2024/04/06 11:29:13;;;;;;;2.60;0.90;;;37.90;15.70;;;;;;5015353;28;20470;-74
2024/04/06 11:31:39;;;;;;;3.00;1.03;;;38.10;14.80;;;;;;5014239;28;20299;-75
2024/04/06 11:34:06;;;;;;;7.57;1.00;;;38.20;15.50;;;;;;4995379;28;20439;-74
2024/04/06 11:36:35;;;;;;;3.47;1.00;;;38.10;14.50;;;;;;4995254;28;20423;-75
2024/04/06 11:39:02;;;;;;;2.83;0.80;;;38.20;14.10;;;;;;4995462;28;20436;-74
2024/04/06 11:41:28;;;;;;;3.03;1.00;;;38.00;12.70;;;;;;5007263;28;20427;-70
2024/04/06 11:43:55;;;;;;;2.50;0.90;;;37.80;14.00;;;;;;4996014;28;20439;-70
2024/04/06 11:46:21;;;;;;;2.50;0.87;;;37.80;13.30;;;;;;4995385;28;20833;-69
2024/04/06 11:48:48;;;;;;;3.13;1.10;;;37.80;13.50;;;;;;4995353;28;20795;-70
2024/04/06 11:51:15;;;;;;;2.43;0.80;;;37.90;11.90;;;;;;4994844;28;20475;-70
2024/04/06 11:53:44;;;;;;;2.27;0.77;;;37.70;12.80;;;;;;4995155;28;20443;-69
2024/04/06 11:56:10;;;;;;;2.47;1.00;;;37.60;13.00;;;;;;5006668;28;20431;-69
2024/04/06 11:58:37;;;;;;;3.77;1.03;;;37.60;13.00;;;;;;5014584;28;20428;-70
2024/04/06 12:01:03;;;;;;;2.83;0.80;;;37.70;13.40;;;;;;5014596;28;20466;-69
2024/04/06 12:03:30;;;;;;;2.83;0.90;;;37.80;13.40;;;;;;4997698;28;20990;-70
2024/04/06 12:05:56;;;;;;;2.53;0.90;;;37.70;14.00;;;;;;4994604;28;20518;-69
2024/04/06 12:08:28;;;;;;;2.80;0.90;;;37.70;13.90;;;;;;4995457;28;20468;-69
2024/04/06 12:10:55;;;;;;;2.60;1.00;;;37.80;11.90;;;;;;4993916;28;20526;-69
2024/04/06 12:13:23;;;;;;;3.70;0.90;;;37.80;12.30;;;;;;4998917;28;20509;-69
2024/04/06 12:15:49;;;;;;;2.37;0.87;;;37.70;12.20;;;;;;5012944;28;20435;-70
2024/04/06 12:18:16;;;;;;;2.57;0.80;;;37.70;12.10;;;;;;5012517;28;20437;-69
2024/04/06 12:20:42;;;;;;;2.30;0.73;;;37.40;12.60;;;;;;4996719;28;20474;-69
2024/04/06 12:23:08;;;;;;;3.40;0.80;;;37.30;13.30;;;;;;5004528;28;21308;-70
2024/04/06 12:25:34;;;;;;;4.87;0.93;;;37.10;11.60;;;;;;5002111;28;20934;-69
2024/04/06 12:28:03;;;;;;;2.20;0.70;;;37.00;13.80;;;;;;5010660;28;20474;-69
2024/04/06 12:30:29;;;;;;;4.60;1.20;;;36.80;13.20;;;;;;5014651;28;20506;-69
2024/04/06 12:32:56;;;;;;;2.37;0.90;;;36.60;14.10;;;;;;5014407;28;20489;-69
2024/04/06 12:35:22;;;;;;;2.60;1.10;;;36.40;12.40;;;;;;5014709;28;20485;-69
2024/04/06 12:37:49;;;;;;;3.80;0.90;;;36.30;13.90;;;;;;5014537;28;20443;-70
2024/04/06 12:40:15;;;;;;;2.03;0.70;;;36.10;13.70;;;;;;5014562;28;20473;-69
2024/04/06 12:42:42;;;;;;;2.87;0.90;;;36.10;14.00;;;;;;5014503;28;20471;-69
2024/04/06 12:45:09;;;;;;;4.47;0.90;;;36.00;13.40;;;;;;5014465;28;20918;-69
2024/04/06 12:47:36;;;;;;;3.80;1.30;;;35.90;14.00;;;;;;5014084;28;20516;-69